Meteo Pančevo - METAR stanice u blizini


METAR stanice u blizini

 

LYBE - Beograd / Surčin, Srbija
Ažurirano: 15/08/2018 16:30
Partly Cloudy
Partly Cloudy
 Pravac vetra calm
Vetar: Tišina
Temperatura: 29°C
Heat Index: 29°C
Tačka rose: 18°C
Vlažnost: 51%
Pritisak: 1014 hPa
Oblaci: Partly Cloudy
Vidljivost: 10 km
Cloud details: Partly Cloudy 1219 m
2018/08/15 14:30 LYBE 151430Z 00000KT 9999 SCT040 29/18 Q1014 NOSIG
LYBT - Beograd / Batajnica, Srbija
Ažurirano: 15/08/2018 16:30
Vedro
Vedro
 Pravac vetra varies
Vetar: varies 11 km/h
Temperatura: 29°C
Heat Index: 29°C
Tačka rose: 18°C
Vlažnost: 51%
Pritisak: 1014 hPa
Pregled: Vedro
Vidljivost: greater than 10 km
2018/08/15 14:30 LYBT 151430Z VRB06KT CAVOK 29/18 Q1014 NOSIG
LYVR - Vršac, Srbija
Ažurirano: 15/08/2018 16:30
Partly Cloudy
Partly Cloudy
 Pravac vetra Z
Vetar: Z 7 km/h
Temperatura: 30°C
Heat Index: 29°C
Tačka rose: 15°C
Vlažnost: 40%
Pritisak: 1014 hPa
Oblaci: Partly Cloudy
Vidljivost: 10 km
Cloud details: Partly Cloudy 1006 m
2018/08/15 14:30 LYVR 151430Z 28004KT 240V360 9999 SCT033 30/15 Q1014 NOSIG
 
LYKV - Lađevci, Srbija
Ažurirano: 15/08/2018 16:30
Few Clouds
Few Clouds
 Pravac vetra varies
Vetar: varies 6 km/h
Temperatura: 27°C
Heat Index: 28°C
Tačka rose: 19°C
Vlažnost: 62%
Pritisak: 1015 hPa
Oblaci: Few Clouds
Vidljivost: 10 km
Cloud details: Few Clouds 1219 m
2018/08/15 14:30 LYKV 151430Z VRB03KT 9999 FEW040 27/19 Q1015 NOSIG
LYNI - Niš, Srbija
Ažurirano: 15/08/2018 16:30
Few Clouds
Few Clouds
 Pravac vetra SZ
Vetar: SZ 28 km/h
Temperatura: 28°C
Heat Index: 29°C
Tačka rose: 18°C
Vlažnost: 55%
Pritisak: 1013 hPa
Oblaci: Few Clouds
Vidljivost: 10 km
Cloud details: Few Clouds 1219 m
2018/08/15 14:30 LYNI 151430Z 32015KT 9999 FEW040 28/18 Q1013 NOSIG
BKPR - Priština, Srbija
Ažurirano: 15/08/2018 17:00
Mostly Cloudy
Mostly Cloudy
 Pravac vetra varies
Vetar: varies 4 km/h
Temperatura: 27°C
Heat Index: 27°C
Tačka rose: 14°C
Vlažnost: 45%
Pritisak: 1014 hPa
Oblaci: Mostly Cloudy
Vidljivost: 10 km
Cloud details: Few Clouds 1067 m
Few Clouds 1219 m
Mostly Cloudy 2134 m
2018/08/15 15:00 BKPR 151500Z VRB02KT 9999 FEW035CB FEW040 BKN070 27/14 Q1014
 
LHPP - Pecs / Pogany, Hungary
Ažurirano: 15/08/2018 16:15
Mostly Cloudy
Mostly Cloudy
 Pravac vetra S
Vetar: S 19 km/h
Temperatura: 26°C
Tačka rose: 16°C
Vlažnost: 54%
Pritisak: 1017 hPa
Oblaci: Mostly Cloudy
Vidljivost: 10 km
Cloud details: Few Clouds 1402 m
Mostly Cloudy 6096 m
2018/08/15 14:15 LHPP 151415Z 36010KT 9999 FEW046 BKN200 26/16 Q1017
LHUD - Szeged, Hungary
Ažurirano: 15/08/2018 16:15
Vedro
Vedro
 Pravac vetra ZSZ
Vetar: ZSZ 15 km/h
Temperatura: 30°C
Heat Index: 31°C
Tačka rose: 18°C
Vlažnost: 49%
Pritisak: 1014 hPa
Pregled: Vedro
Vidljivost: greater than 10 km
2018/08/15 14:15 LHUD 151415Z 29008KT CAVOK 30/18 Q1014
LRTR - Timisoara, Romania
Ažurirano: 15/08/2018 16:30
Vedro
Vedro
 Pravac vetra ZSZ
Vetar: ZSZ 11 km/h
Temperatura: 29°C
Heat Index: 29°C
Tačka rose: 17°C
Vlažnost: 48%
Pritisak: 1014 hPa
Pregled: Vedro
Vidljivost: greater than 10 km
2018/08/15 14:30 LRTR 151430Z 30006KT 270V330 CAVOK 29/17 Q1014 NOSIG
 
LRCV - Craiova, Romania
Ažurirano: 15/08/2018 16:30
Vedro
Vedro
 Pravac vetra I
Vetar: I 15 km/h
Temperatura: 30°C
Tačka rose: 8°C
Vlažnost: 25%
Pritisak: 1013 hPa
Pregled: Vedro
Vidljivost: greater than 10 km
2018/08/15 14:30 LRCV 151430Z 10008KT 060V120 CAVOK 30/08 Q1013
LBSF - Sofia, Bulgaria
Ažurirano: 15/08/2018 16:30
Partly Cloudy
Partly Cloudy
 Pravac vetra SI
Vetar: SI 15 km/h
Temperatura: 28°C
Heat Index: 28°C
Tačka rose: 14°C
Vlažnost: 42%
Pritisak: 1014 hPa
Oblaci: Partly Cloudy
Vidljivost: 10 km
Cloud details: Partly Cloudy 1981 m
2018/08/15 14:30 LBSF 151430Z 05008KT 020V080 9999 SCT065 28/14 Q1014 NOSIG
LWSK - Skoplje, Makedonija
Ažurirano: 15/08/2018 16:30
Few Clouds
Few Clouds
 Pravac vetra SSI
Vetar: SSI 30 km/h
Temperatura: 30°C
Tačka rose: 14°C
Vlažnost: 38%
Pritisak: 1012 hPa
Oblaci: Few Clouds
Vidljivost: 10 km
Cloud details: Few Clouds 1402 m
2018/08/15 14:30 LWSK 151430Z 03016KT 9999 FEW046CB 30/14 Q1012 NOSIG
 
LYPG - Podgorica, Crna Gora
Ažurirano: 15/08/2018 16:30
Few Clouds
Few Clouds
 Pravac vetra SSI
Vetar: SSI 24 km/h
Temperatura: 33°C
Tačka rose: 13°C
Vlažnost: 30%
Pritisak: 1009 hPa
Oblaci: Few Clouds
Vidljivost: 10 km
Cloud details: Few Clouds 1006 m
Few Clouds 1219 m
2018/08/15 14:30 LYPG 151430Z 02013KT 340V050 9999 FEW033TCU FEW040 33/13 Q1009 NOSIG
LQSA - Sarajevo, Bosna i Hercegovina
Ažurirano: 15/08/2018 16:30
Thunderstorm, Delimično oblačno
Thunderstorm, Delimično oblačno
 Pravac vetra SZ
Vetar: SZ 13 km/h
Temperatura: 23°C
Tačka rose: 17°C
Vlažnost: 69%
Pritisak: 1016 hPa
Pregled: Thunderstorm
Oblaci: Partly Cloudy
Vidljivost: 10 km
Cloud details: Few Clouds 1067 m
Few Clouds 1372 m
Partly Cloudy 1676 m
2018/08/15 14:30 LQSA 151430Z 31007KT 9999 TS FEW035CB FEW045 SCT055 23/17 Q1016 TEMPO TSRA
LDOS - Osijek, Hrvatksa
Ažurirano: 15/08/2018 16:30
Few Clouds
Few Clouds
 Pravac vetra S
Vetar: S 15 km/h
Temperatura: 28°C
Heat Index: 28°C
Tačka rose: 16°C
Vlažnost: 48%
Pritisak: 1015 hPa
Oblaci: Few Clouds
Vidljivost: 10 km
Cloud details: Few Clouds 1433 m
2018/08/15 14:30 LDOS 151430Z 36008KT 330V040 9999 FEW047 28/16 Q1015